Time;durP1;ratioP1;P1;durP2;ratioP2;P2;SDS_P1;SDS_P2;PMS_P1;PMS_P2;Temp;Humidity;BMP_temperature;BMP_pressure;BME280_temperature;BME280_humidity;BME280_pressure;Samples;Min_cycle;Max_cycle;Signal;HPM_P1;HPM_P2
2023/03/14 00:01:24;;;;;;;2.40;0.80;;;9.90;99.90;;;;;;5073888;28;20176;-84
2023/03/14 00:03:50;;;;;;;0.60;0.60;;;9.90;99.90;;;;;;5074027;28;20204;-83
2023/03/14 00:06:17;;;;;;;0.90;0.83;;;9.90;99.90;;;;;;5074098;28;20179;-84
2023/03/14 00:08:43;;;;;;;2.03;0.80;;;9.80;99.90;;;;;;5073906;28;20286;-84
2023/03/14 00:11:11;;;;;;;0.60;0.60;;;9.90;99.90;;;;;;5071991;28;20215;-84
2023/03/14 00:13:37;;;;;;;1.20;0.87;;;9.80;99.90;;;;;;5072399;28;20309;-84
2023/03/14 00:16:11;;;;;;;0.80;0.70;;;9.80;99.90;;;;;;5073184;28;20279;-84
2023/03/14 00:18:37;;;;;;;0.97;0.70;;;9.80;99.90;;;;;;5074046;28;20219;-84
2023/03/14 00:21:05;;;;;;;0.70;0.70;;;9.80;99.90;;;;;;5074703;28;20169;-84
2023/03/14 00:23:33;;;;;;;3.43;0.90;;;9.90;99.90;;;;;;5074436;28;20181;-83
2023/03/14 00:26:08;;;;;;;0.80;0.80;;;9.90;99.90;;;;;;5074682;28;20180;-82
2023/03/14 00:28:34;;;;;;;0.80;0.70;;;10.00;99.90;;;;;;5073606;28;20196;-84
2023/03/14 00:31:03;;;;;;;0.80;0.80;;;9.90;99.90;;;;;;5071165;28;20272;-84
2023/03/14 00:33:28;;;;;;;1.00;0.80;;;9.90;99.90;;;;;;5074122;28;20258;-84
2023/03/14 00:35:59;;;;;;;0.70;0.70;;;9.90;99.90;;;;;;5073019;28;20172;-84
2023/03/14 00:38:25;;;;;;;1.23;0.90;;;9.90;99.90;;;;;;5073242;28;20193;-82
2023/03/14 00:40:52;;;;;;;1.00;0.80;;;9.80;99.90;;;;;;5074678;28;20263;-83
2023/03/14 00:43:18;;;;;;;0.80;0.80;;;9.80;99.90;;;;;;5074711;28;20207;-84
2023/03/14 00:45:44;;;;;;;1.23;0.90;;;9.80;99.90;;;;;;5073577;28;20219;-83
2023/03/14 00:48:09;;;;;;;2.40;1.03;;;9.70;99.90;;;;;;5074899;28;20667;-83
2023/03/14 00:50:35;;;;;;;2.43;1.13;;;9.80;99.90;;;;;;5073275;28;20173;-84
2023/03/14 00:53:00;;;;;;;1.83;1.00;;;9.80;99.90;;;;;;5074210;28;20169;-81
2023/03/14 00:55:26;;;;;;;1.40;1.00;;;9.90;99.90;;;;;;5074228;28;20207;-84
2023/03/14 00:57:52;;;;;;;1.23;0.97;;;9.90;99.90;;;;;;5073295;28;20197;-83
2023/03/14 01:00:17;;;;;;;1.70;1.03;;;9.80;99.90;;;;;;5074502;28;20183;-84
2023/03/14 01:02:43;;;;;;;2.17;1.10;;;9.80;99.90;;;;;;5072969;28;20181;-84
2023/03/14 01:05:10;;;;;;;1.67;0.90;;;9.80;99.90;;;;;;5073009;28;20203;-84
2023/03/14 01:07:36;;;;;;;2.40;0.80;;;9.80;99.90;;;;;;5073496;28;20227;-84
2023/03/14 01:10:03;;;;;;;2.47;0.90;;;9.80;99.90;;;;;;5074517;28;20177;-83
2023/03/14 01:12:29;;;;;;;1.73;1.03;;;9.80;99.90;;;;;;5089594;28;20678;-84
2023/03/14 01:14:55;;;;;;;1.17;0.87;;;9.80;99.90;;;;;;5072704;28;20197;-83
2023/03/14 01:17:21;;;;;;;1.40;0.97;;;9.70;99.90;;;;;;5073719;28;20205;-83
2023/03/14 01:19:47;;;;;;;1.23;0.90;;;9.80;99.90;;;;;;5072394;28;20169;-83
2023/03/14 01:22:12;;;;;;;1.70;1.07;;;9.70;99.90;;;;;;5074180;28;20173;-83
2023/03/14 01:24:38;;;;;;;1.77;1.20;;;9.70;99.90;;;;;;5076914;28;20245;-84
2023/03/14 01:27:03;;;;;;;1.13;0.93;;;9.70;99.90;;;;;;5076526;28;20172;-84
2023/03/14 01:29:29;;;;;;;1.20;1.10;;;9.70;99.90;;;;;;5077699;28;20211;-82
2023/03/14 01:31:55;;;;;;;1.50;0.90;;;9.70;99.90;;;;;;5076994;28;20180;-84
2023/03/14 01:34:20;;;;;;;3.37;1.30;;;9.70;99.90;;;;;;5076113;28;20211;-84
2023/03/14 01:36:46;;;;;;;2.03;1.10;;;9.80;99.90;;;;;;5077803;28;20183;-84
2023/03/14 01:39:12;;;;;;;2.23;1.20;;;9.70;99.90;;;;;;5077560;28;20199;-84
2023/03/14 01:41:39;;;;;;;2.50;1.10;;;9.70;99.90;;;;;;5077811;28;20207;-83
2023/03/14 01:44:09;;;;;;;2.93;1.23;;;9.70;99.90;;;;;;5076444;28;20205;-84
2023/03/14 01:46:38;;;;;;;2.13;1.13;;;9.70;99.90;;;;;;5077593;28;20191;-83
2023/03/14 01:49:14;;;;;;;2.53;1.43;;;9.70;99.90;;;;;;5075732;28;20201;-83
2023/03/14 01:52:01;;;;;;;2.50;1.30;;;9.60;99.90;;;;;;5077620;28;20168;-83
2023/03/14 01:54:43;;;;;;;4.30;1.27;;;9.60;99.90;;;;;;5075145;28;20678;-84
2023/03/14 01:57:24;;;;;;;2.80;1.10;;;9.70;99.90;;;;;;5075964;28;20191;-83
2023/03/14 01:59:55;;;;;;;2.97;1.40;;;9.70;99.90;;;;;;5075941;28;20556;-84
2023/03/14 02:02:22;;;;;;;1.47;1.00;;;9.70;99.90;;;;;;5076409;28;20172;-83
2023/03/14 02:04:49;;;;;;;4.13;1.40;;;9.60;99.90;;;;;;5076155;28;20563;-83
2023/03/14 02:07:35;;;;;;;3.53;1.23;;;9.60;99.90;;;;;;5077375;28;20196;-84
2023/03/14 02:10:03;;;;;;;2.60;1.20;;;9.70;99.90;;;;;;5077770;28;20207;-84
2023/03/14 02:12:28;;;;;;;2.47;1.33;;;9.60;99.90;;;;;;5077780;28;20185;-83
2023/03/14 02:14:54;;;;;;;3.23;1.17;;;9.70;99.90;;;;;;5076061;28;20207;-84
2023/03/14 02:17:22;;;;;;;5.23;1.30;;;9.60;99.90;;;;;;5077412;28;20201;-84
2023/03/14 02:20:07;;;;;;;2.20;1.30;;;9.60;99.90;;;;;;5076262;28;20260;-83
2023/03/14 02:22:34;;;;;;;3.53;1.20;;;9.60;99.90;;;;;;5077418;28;20160;-84
2023/03/14 02:25:18;;;;;;;2.73;1.23;;;9.60;99.90;;;;;;5075895;28;20203;-83
2023/03/14 02:27:44;;;;;;;2.23;1.23;;;9.60;99.90;;;;;;5077558;28;20262;-84
2023/03/14 02:30:31;;;;;;;2.43;1.30;;;9.50;99.90;;;;;;5077244;28;20180;-83
2023/03/14 02:33:02;;;;;;;3.57;1.20;;;9.50;99.90;;;;;;5076522;28;20187;-83
2023/03/14 02:35:32;;;;;;;2.60;1.10;;;9.60;99.90;;;;;;5075323;28;20188;-83
2023/03/14 02:38:06;;;;;;;3.87;1.10;;;9.60;99.90;;;;;;5075507;28;20192;-83
2023/03/14 02:40:31;;;;;;;3.50;1.00;;;9.60;99.90;;;;;;5076002;28;20159;-84
2023/03/14 02:42:57;;;;;;;3.37;1.17;;;9.60;99.90;;;;;;5076835;28;20169;-83
2023/03/14 02:45:22;;;;;;;3.63;1.30;;;9.60;99.90;;;;;;5075416;28;20242;-83
2023/03/14 02:47:59;;;;;;;4.47;1.37;;;9.50;99.90;;;;;;5075233;28;20211;-83
2023/03/14 02:50:29;;;;;;;1.93;1.10;;;9.50;99.90;;;;;;5076458;28;20218;-83
2023/03/14 02:52:54;;;;;;;3.10;1.23;;;9.50;99.90;;;;;;5075611;28;20173;-82
2023/03/14 02:55:21;;;;;;;4.23;1.30;;;9.40;99.90;;;;;;5075196;28;20203;-84
2023/03/14 02:57:47;;;;;;;4.13;1.30;;;9.50;99.90;;;;;;5075360;28;20193;-83
2023/03/14 03:00:12;;;;;;;3.07;1.20;;;9.50;99.90;;;;;;5075495;28;20168;-83
2023/03/14 03:02:38;;;;;;;3.37;1.23;;;9.40;99.90;;;;;;5075220;28;20180;-83
2023/03/14 03:05:04;;;;;;;4.83;1.27;;;9.50;99.90;;;;;;5075106;28;20177;-83
2023/03/14 03:07:29;;;;;;;2.27;1.00;;;9.40;99.90;;;;;;5075305;28;20247;-83
2023/03/14 03:09:55;;;;;;;2.90;1.13;;;9.50;99.90;;;;;;5076549;28;20187;-83
2023/03/14 03:12:21;;;;;;;4.43;1.50;;;9.40;99.90;;;;;;5076442;28;20176;-84
2023/03/14 03:14:46;;;;;;;3.40;1.23;;;9.40;99.90;;;;;;5074920;28;20200;-83
2023/03/14 03:17:12;;;;;;;2.13;1.00;;;9.40;99.90;;;;;;5075916;28;20191;-84
2023/03/14 03:19:37;;;;;;;4.43;1.20;;;9.40;99.90;;;;;;5075953;28;20157;-82
2023/03/14 03:22:03;;;;;;;3.03;1.40;;;9.40;99.90;;;;;;5074952;28;20251;-83
2023/03/14 03:24:28;;;;;;;2.87;1.20;;;9.40;99.90;;;;;;5076260;28;20183;-83
2023/03/14 03:26:54;;;;;;;4.00;1.20;;;9.50;99.90;;;;;;5074919;28;20179;-81
2023/03/14 03:29:19;;;;;;;3.50;1.23;;;9.50;99.90;;;;;;5075868;28;20183;-83
2023/03/14 03:31:45;;;;;;;5.57;1.33;;;9.50;99.90;;;;;;5075796;28;20546;-82
2023/03/14 03:34:12;;;;;;;2.07;1.13;;;9.50;99.90;;;;;;5075469;28;20189;-83
2023/03/14 03:36:38;;;;;;;3.10;1.03;;;9.50;99.90;;;;;;5076210;28;20195;-83
2023/03/14 03:39:03;;;;;;;2.40;0.90;;;9.50;99.90;;;;;;5074668;28;20185;-84
2023/03/14 03:41:30;;;;;;;3.40;1.27;;;9.50;99.90;;;;;;5074614;28;20254;-83
2023/03/14 03:43:56;;;;;;;2.33;1.00;;;9.40;99.90;;;;;;5076168;28;20186;-83
2023/03/14 03:46:21;;;;;;;3.60;1.10;;;9.40;99.90;;;;;;5074677;28;20176;-83
2023/03/14 03:48:47;;;;;;;4.77;1.37;;;9.40;99.90;;;;;;5074883;28;20195;-83
2023/03/14 03:51:14;;;;;;;3.33;1.00;;;9.40;99.90;;;;;;5074083;28;20202;-83
2023/03/14 03:53:41;;;;;;;5.30;1.60;;;9.40;99.90;;;;;;5074962;28;20269;-83
2023/03/14 03:56:08;;;;;;;2.73;1.20;;;9.40;99.90;;;;;;5073321;28;20206;-81
2023/03/14 03:58:33;;;;;;;4.03;1.10;;;9.40;99.90;;;;;;5073255;28;20644;-83
2023/03/14 04:00:59;;;;;;;5.47;1.20;;;9.40;99.90;;;;;;5074890;28;20204;-83
2023/03/14 04:03:25;;;;;;;2.27;1.20;;;9.40;99.90;;;;;;5073231;28;20176;-83
2023/03/14 04:06:03;;;;;;;2.07;1.30;;;9.40;99.90;;;;;;5073667;28;20188;-83
2023/03/14 04:08:29;;;;;;;3.57;1.40;;;9.50;99.90;;;;;;5073219;28;20299;-83
2023/03/14 04:11:00;;;;;;;3.13;1.27;;;9.50;99.90;;;;;;5074891;28;20195;-83
2023/03/14 04:13:26;;;;;;;2.33;1.30;;;9.50;99.90;;;;;;5073543;28;20168;-83
2023/03/14 04:15:53;;;;;;;3.30;1.10;;;9.40;99.90;;;;;;5074491;28;20172;-83
2023/03/14 04:18:19;;;;;;;3.77;1.20;;;9.50;99.90;;;;;;5074527;28;20219;-83
2023/03/14 04:20:44;;;;;;;3.83;1.20;;;9.50;99.90;;;;;;5074488;28;20181;-83
2023/03/14 04:23:10;;;;;;;3.17;1.20;;;9.50;99.90;;;;;;5073380;28;20598;-83
2023/03/14 04:25:36;;;;;;;3.67;1.30;;;9.40;99.90;;;;;;5073463;28;20278;-82
2023/03/14 04:28:03;;;;;;;3.87;1.30;;;9.50;99.90;;;;;;5072854;28;20227;-83
2023/03/14 04:30:28;;;;;;;1.70;1.03;;;9.50;99.90;;;;;;5074083;28;20199;-83
2023/03/14 04:32:54;;;;;;;3.77;1.50;;;9.40;99.90;;;;;;5074823;28;20539;-82
2023/03/14 04:35:19;;;;;;;3.00;1.23;;;9.40;99.90;;;;;;5074428;28;20196;-83
2023/03/14 04:37:48;;;;;;;2.00;1.33;;;9.40;99.90;;;;;;5073231;28;20248;-84
2023/03/14 04:40:15;;;;;;;3.80;1.10;;;9.50;99.90;;;;;;5074554;28;20199;-83
2023/03/14 04:42:41;;;;;;;2.97;1.10;;;9.40;99.90;;;;;;5074522;28;20661;-83
2023/03/14 04:45:07;;;;;;;4.23;1.13;;;9.40;99.90;;;;;;5074612;28;20177;-83
2023/03/14 04:47:33;;;;;;;3.63;1.40;;;9.40;99.90;;;;;;5074322;28;20193;-83
2023/03/14 04:49:59;;;;;;;2.13;0.80;;;9.40;99.90;;;;;;5073123;28;20237;-83
2023/03/14 04:52:24;;;;;;;3.60;1.40;;;9.40;99.90;;;;;;5075148;28;20170;-83
2023/03/14 04:54:50;;;;;;;2.67;1.07;;;9.40;99.90;;;;;;5075402;28;20201;-83
2023/03/14 04:57:15;;;;;;;2.33;1.00;;;9.40;99.90;;;;;;5076092;28;20196;-83
2023/03/14 04:59:41;;;;;;;2.90;1.33;;;9.40;99.90;;;;;;5077036;28;20183;-82
2023/03/14 05:02:06;;;;;;;2.77;1.23;;;9.40;99.90;;;;;;5077889;28;20254;-84
2023/03/14 05:04:33;;;;;;;2.10;1.00;;;9.30;99.90;;;;;;5078784;28;20211;-83
2023/03/14 05:06:59;;;;;;;2.40;1.30;;;9.30;99.90;;;;;;5078982;28;20187;-83
2023/03/14 05:09:25;;;;;;;2.50;1.20;;;9.30;99.90;;;;;;5079031;28;20266;-83
2023/03/14 05:11:50;;;;;;;1.83;1.03;;;9.30;99.90;;;;;;5077704;28;20192;-83
2023/03/14 05:14:16;;;;;;;2.80;1.00;;;9.30;99.90;;;;;;5077253;28;20578;-83
2023/03/14 05:16:41;;;;;;;2.30;1.27;;;9.30;99.90;;;;;;5078696;28;20237;-83
2023/03/14 05:19:07;;;;;;;3.63;1.20;;;9.30;99.90;;;;;;5078466;28;20212;-84
2023/03/14 05:21:33;;;;;;;3.37;1.20;;;9.30;99.90;;;;;;5077229;28;20203;-83
2023/03/14 05:23:58;;;;;;;3.10;1.20;;;9.30;99.90;;;;;;5078461;28;20277;-83
2023/03/14 05:26:24;;;;;;;2.37;1.10;;;9.30;99.90;;;;;;5077155;28;20246;-83
2023/03/14 05:28:49;;;;;;;2.30;1.50;;;9.30;99.90;;;;;;5076959;28;20215;-83
2023/03/14 05:31:15;;;;;;;4.57;1.40;;;9.30;99.90;;;;;;5077769;28;20180;-84
2023/03/14 05:33:40;;;;;;;3.90;1.00;;;9.30;99.90;;;;;;5077352;28;20204;-84
2023/03/14 05:36:06;;;;;;;3.47;1.37;;;9.30;99.90;;;;;;5077269;28;20203;-87
2023/03/14 05:38:32;;;;;;;2.93;1.27;;;9.20;99.90;;;;;;5075628;28;20187;-86
2023/03/14 05:40:57;;;;;;;3.33;1.20;;;9.20;99.90;;;;;;5064993;28;20180;-84
2023/03/14 05:43:23;;;;;;;3.17;1.20;;;9.20;99.90;;;;;;5074130;28;20174;-84
2023/03/14 05:45:49;;;;;;;3.47;1.30;;;9.20;99.90;;;;;;5074263;28;20179;-85
2023/03/14 05:48:14;;;;;;;3.90;1.17;;;9.20;99.90;;;;;;5075572;28;20193;-84
2023/03/14 05:50:40;;;;;;;2.90;1.00;;;9.10;99.90;;;;;;5074332;28;20174;-86
2023/03/14 05:53:05;;;;;;;3.07;1.30;;;9.10;99.90;;;;;;5074379;28;20206;-85
2023/03/14 05:55:31;;;;;;;2.73;1.10;;;9.10;99.90;;;;;;5075601;28;20556;-84
2023/03/14 05:57:57;;;;;;;3.20;1.23;;;9.10;99.90;;;;;;5075264;28;20210;-85
2023/03/14 06:00:23;;;;;;;4.50;1.27;;;9.10;99.90;;;;;;5075059;28;20171;-86
2023/03/14 06:02:48;;;;;;;2.23;1.23;;;9.20;99.90;;;;;;5074138;28;20176;-87
2023/03/14 06:05:14;;;;;;;4.03;1.07;;;9.20;99.90;;;;;;5073929;28;20181;-86
2023/03/14 06:07:39;;;;;;;2.40;1.27;;;9.10;99.90;;;;;;5073980;28;20255;-86
2023/03/14 06:10:05;;;;;;;3.27;1.07;;;9.10;99.90;;;;;;5072699;28;20243;-86
2023/03/14 06:12:31;;;;;;;2.40;1.00;;;9.10;99.90;;;;;;5075206;28;20176;-87
2023/03/14 06:14:57;;;;;;;3.07;1.10;;;9.10;99.90;;;;;;5074700;28;20208;-86
2023/03/14 06:17:22;;;;;;;2.63;0.90;;;9.10;99.90;;;;;;5074967;28;20203;-86
2023/03/14 06:19:48;;;;;;;4.00;1.37;;;9.20;99.90;;;;;;5073546;28;20262;-86
2023/03/14 06:22:14;;;;;;;2.83;1.00;;;9.20;99.90;;;;;;5073579;28;20183;-86
2023/03/14 06:24:39;;;;;;;2.23;1.00;;;9.20;99.90;;;;;;5074943;28;20228;-86
2023/03/14 06:27:05;;;;;;;2.57;1.30;;;9.20;99.90;;;;;;5073461;28;20179;-87
2023/03/14 06:29:31;;;;;;;2.47;0.90;;;9.20;99.90;;;;;;5073591;28;20179;-86
2023/03/14 06:31:56;;;;;;;2.70;1.10;;;9.30;99.90;;;;;;5073271;28;20174;-86
2023/03/14 06:34:22;;;;;;;2.20;0.90;;;9.20;99.90;;;;;;5073882;28;20201;-86
2023/03/14 06:36:47;;;;;;;2.97;0.90;;;9.30;99.90;;;;;;5074735;28;20183;-87
2023/03/14 06:39:13;;;;;;;1.53;1.03;;;9.30;99.90;;;;;;5074697;28;20191;-86
2023/03/14 06:41:39;;;;;;;5.47;1.40;;;9.20;99.90;;;;;;5075150;28;20229;-81
2023/03/14 06:44:04;;;;;;;0.73;0.73;;;9.20;99.90;;;;;;5074337;28;20177;-83
2023/03/14 06:46:30;;;;;;;5.27;1.00;;;9.20;99.90;;;;;;5073700;28;20176;-82
2023/03/14 06:48:56;;;;;;;4.03;1.23;;;9.20;99.90;;;;;;5073568;28;20200;-83
2023/03/14 06:51:22;;;;;;;2.70;1.00;;;9.30;99.90;;;;;;5074783;28;20176;-80
2023/03/14 06:53:47;;;;;;;3.30;1.20;;;9.30;99.90;;;;;;5073231;28;20329;-83
2023/03/14 06:56:13;;;;;;;2.60;0.90;;;9.30;99.90;;;;;;5073182;28;20222;-82
2023/03/14 06:58:38;;;;;;;2.53;1.00;;;9.30;99.90;;;;;;5074151;28;20187;-80
2023/03/14 07:01:05;;;;;;;2.10;0.90;;;9.30;99.90;;;;;;5074257;28;20599;-85
2023/03/14 07:03:30;;;;;;;2.40;1.00;;;9.20;99.90;;;;;;5074293;28;20225;-84
2023/03/14 07:05:56;;;;;;;3.67;1.00;;;9.20;99.90;;;;;;5073413;28;20576;-84
2023/03/14 07:08:22;;;;;;;2.00;0.80;;;9.20;99.90;;;;;;5073304;28;20185;-84
2023/03/14 07:10:48;;;;;;;2.27;0.93;;;9.20;99.90;;;;;;5072725;28;20172;-85
2023/03/14 07:13:13;;;;;;;2.50;0.90;;;9.20;99.90;;;;;;5072483;28;20203;-86
2023/03/14 07:15:39;;;;;;;0.97;0.90;;;9.20;99.90;;;;;;5074051;28;20199;-84
2023/03/14 07:18:04;;;;;;;1.60;0.80;;;9.20;99.90;;;;;;5073870;28;20231;-84
2023/03/14 07:20:32;;;;;;;2.43;0.90;;;9.20;99.90;;;;;;5072344;28;20167;-85
2023/03/14 07:22:59;;;;;;;2.03;0.90;;;9.10;99.90;;;;;;5074040;28;20193;-84
2023/03/14 07:25:25;;;;;;;2.33;1.07;;;9.10;99.90;;;;;;5074057;28;20176;-83
2023/03/14 07:27:51;;;;;;;2.30;1.00;;;9.10;99.90;;;;;;5072298;28;20199;-85
2023/03/14 07:30:16;;;;;;;1.33;0.90;;;9.00;99.90;;;;;;5072424;28;20552;-85
2023/03/14 07:32:42;;;;;;;2.70;1.13;;;8.90;99.90;;;;;;5072418;28;20175;-85
2023/03/14 07:35:08;;;;;;;2.97;0.87;;;8.90;99.90;;;;;;5072169;28;20190;-85
2023/03/14 07:37:34;;;;;;;3.70;0.90;;;8.90;99.90;;;;;;5072119;28;20190;-85
2023/03/14 07:40:00;;;;;;;1.30;0.83;;;8.90;99.90;;;;;;5071906;28;20172;-86
2023/03/14 07:42:25;;;;;;;2.13;1.23;;;8.90;99.90;;;;;;5064556;28;20174;-86
2023/03/14 07:44:51;;;;;;;1.73;0.90;;;8.80;99.90;;;;;;5055574;28;20186;-85
2023/03/14 07:47:16;;;;;;;2.57;0.90;;;8.80;99.90;;;;;;5053637;28;20323;-86
2023/03/14 07:49:42;;;;;;;1.37;0.83;;;8.80;99.90;;;;;;5053279;28;20176;-84
2023/03/14 07:52:07;;;;;;;1.50;0.90;;;8.80;99.90;;;;;;5053367;28;20178;-85
2023/03/14 07:54:33;;;;;;;1.87;0.90;;;8.70;99.90;;;;;;5052036;28;20242;-83
2023/03/14 07:57:00;;;;;;;1.60;0.80;;;8.80;99.90;;;;;;5053449;28;20248;-83
2023/03/14 07:59:26;;;;;;;2.40;0.90;;;8.80;99.90;;;;;;5053445;28;20162;-83
2023/03/14 08:01:52;;;;;;;2.50;1.00;;;8.80;99.90;;;;;;5052010;28;20257;-83
2023/03/14 08:04:17;;;;;;;2.33;0.80;;;8.70;99.90;;;;;;5052047;28;20269;-83
2023/03/14 08:06:43;;;;;;;1.17;1.00;;;8.70;99.90;;;;;;5052221;28;20179;-83
2023/03/14 08:09:08;;;;;;;1.57;0.90;;;8.70;99.90;;;;;;5052317;28;20202;-83
2023/03/14 08:11:34;;;;;;;2.70;0.90;;;8.80;99.90;;;;;;5053372;28;20200;-84
2023/03/14 08:13:59;;;;;;;2.77;1.17;;;8.80;99.90;;;;;;5053701;28;20204;-83
2023/03/14 08:16:25;;;;;;;1.80;1.10;;;8.80;99.90;;;;;;5052203;28;20212;-83
2023/03/14 08:18:51;;;;;;;2.53;1.30;;;8.80;99.90;;;;;;5053371;28;20679;-82
2023/03/14 08:21:16;;;;;;;1.20;1.10;;;8.80;99.90;;;;;;5052314;28;20183;-83
2023/03/14 08:23:42;;;;;;;1.73;0.80;;;8.90;99.90;;;;;;5052244;28;20184;-82
2023/03/14 08:26:07;;;;;;;3.23;1.00;;;8.90;99.90;;;;;;5053436;28;20175;-82
2023/03/14 08:28:33;;;;;;;2.10;1.00;;;8.90;99.90;;;;;;5053483;28;20207;-83
2023/03/14 08:31:00;;;;;;;1.50;0.90;;;8.90;99.90;;;;;;5053312;28;20181;-82
2023/03/14 08:33:28;;;;;;;1.47;0.87;;;8.90;99.90;;;;;;5052532;28;20177;-83
2023/03/14 08:35:55;;;;;;;1.80;1.00;;;8.90;99.90;;;;;;5052042;28;20205;-83
2023/03/14 08:38:20;;;;;;;1.47;0.83;;;8.90;99.90;;;;;;5051865;28;20202;-83
2023/03/14 08:40:46;;;;;;;1.50;0.90;;;8.80;99.90;;;;;;5051709;28;20175;-82
2023/03/14 08:43:12;;;;;;;1.17;0.97;;;8.90;99.90;;;;;;5051334;28;20208;-83
2023/03/14 08:45:38;;;;;;;2.33;1.10;;;8.80;99.90;;;;;;5053007;28;20193;-84
2023/03/14 08:48:04;;;;;;;1.80;1.00;;;8.80;99.90;;;;;;5052744;28;20223;-84
2023/03/14 08:50:29;;;;;;;2.67;1.00;;;8.80;99.90;;;;;;5051379;28;20182;-84
2023/03/14 08:52:57;;;;;;;1.80;1.00;;;8.80;99.90;;;;;;5052751;28;20171;-84
2023/03/14 08:55:23;;;;;;;2.50;0.90;;;8.80;99.90;;;;;;5051089;28;20591;-85
2023/03/14 08:57:48;;;;;;;2.57;1.10;;;8.80;99.90;;;;;;5051294;28;20197;-83
2023/03/14 09:00:15;;;;;;;1.27;0.90;;;8.80;99.90;;;;;;5052697;28;20684;-84
2023/03/14 09:02:41;;;;;;;1.13;0.90;;;8.80;99.90;;;;;;5051515;28;20172;-83
2023/03/14 09:05:07;;;;;;;2.03;1.20;;;8.80;99.90;;;;;;5052480;28;20167;-84
2023/03/14 09:07:33;;;;;;;2.10;1.10;;;8.80;99.90;;;;;;5062139;28;20201;-84
2023/03/14 09:09:58;;;;;;;1.90;1.20;;;8.90;99.90;;;;;;5072628;28;20187;-84
2023/03/14 09:12:24;;;;;;;2.63;1.30;;;8.90;99.90;;;;;;5071670;28;20188;-84
2023/03/14 09:14:49;;;;;;;1.17;1.00;;;8.90;99.90;;;;;;5071698;28;20217;-84
2023/03/14 09:17:15;;;;;;;1.23;1.00;;;8.90;99.90;;;;;;5070937;28;20199;-84
2023/03/14 09:19:40;;;;;;;1.93;1.00;;;9.00;99.90;;;;;;5072615;28;20192;-84
2023/03/14 09:22:06;;;;;;;0.90;0.90;;;8.90;99.90;;;;;;5073149;28;20402;-84
2023/03/14 09:24:31;;;;;;;1.43;0.90;;;9.00;99.90;;;;;;5072404;28;20182;-84
2023/03/14 09:26:57;;;;;;;1.50;1.13;;;9.00;99.90;;;;;;5069508;28;20188;-84
2023/03/14 09:29:24;;;;;;;3.23;1.10;;;8.90;99.90;;;;;;5070648;28;20186;-85
2023/03/14 09:31:49;;;;;;;2.30;1.17;;;8.90;99.90;;;;;;5071704;28;20174;-84
2023/03/14 09:34:15;;;;;;;2.10;1.07;;;9.00;99.90;;;;;;5071450;28;20203;-84
2023/03/14 09:36:41;;;;;;;2.57;1.30;;;9.00;99.90;;;;;;5069548;28;20263;-84
2023/03/14 09:39:07;;;;;;;2.77;1.00;;;9.00;99.90;;;;;;5070570;28;20707;-84
2023/03/14 09:41:40;;;;;;;2.03;1.43;;;9.10;99.90;;;;;;5070322;28;20168;-84
2023/03/14 09:44:17;;;;;;;2.80;1.40;;;9.10;99.90;;;;;;5072879;28;20253;-84
2023/03/14 09:46:47;;;;;;;3.07;1.17;;;9.20;99.90;;;;;;5090985;28;20176;-85
2023/03/14 09:49:27;;;;;;;1.50;1.10;;;9.10;99.90;;;;;;5074176;28;20270;-84
2023/03/14 09:51:56;;;;;;;1.20;0.90;;;9.20;99.90;;;;;;5075296;28;20178;-84
2023/03/14 09:54:46;;;;;;;1.70;1.07;;;9.20;99.90;;;;;;5073644;28;20196;-85
2023/03/14 09:57:16;;;;;;;2.17;1.10;;;9.10;99.90;;;;;;5075087;28;20646;-85
2023/03/14 09:59:44;;;;;;;1.43;1.13;;;9.10;99.90;;;;;;5074968;28;20296;-84
2023/03/14 10:02:24;;;;;;;1.87;1.30;;;9.10;99.90;;;;;;5075213;28;20584;-85
2023/03/14 10:04:53;;;;;;;2.43;1.67;;;9.10;99.90;;;;;;5073639;28;20321;-84
2023/03/14 10:07:25;;;;;;;2.87;1.30;;;9.10;99.90;;;;;;5073651;28;20201;-85
2023/03/14 10:09:51;;;;;;;1.40;1.10;;;9.20;99.90;;;;;;5073756;28;20187;-85
2023/03/14 10:12:17;;;;;;;2.50;1.47;;;9.10;99.90;;;;;;5073648;28;20175;-86
2023/03/14 10:14:50;;;;;;;1.90;1.10;;;9.20;99.90;;;;;;5073564;28;20198;-85
2023/03/14 10:17:18;;;;;;;1.93;1.57;;;9.10;99.90;;;;;;5073408;28;20192;-85
2023/03/14 10:19:56;;;;;;;1.83;1.10;;;9.10;99.90;;;;;;5073485;28;20640;-83
2023/03/14 10:22:25;;;;;;;1.87;1.20;;;9.20;99.90;;;;;;5074632;28;20192;-85
2023/03/14 10:24:55;;;;;;;2.33;1.20;;;9.20;99.90;;;;;;5073548;28;20233;-85
2023/03/14 10:27:28;;;;;;;2.20;1.20;;;9.20;99.90;;;;;;5073305;28;20204;-86
2023/03/14 10:29:56;;;;;;;1.27;1.13;;;9.30;99.90;;;;;;5074268;28;20169;-85
2023/03/14 10:32:37;;;;;;;1.50;1.10;;;9.40;99.90;;;;;;5074633;28;20181;-84
2023/03/14 10:35:23;;;;;;;2.40;1.20;;;9.40;99.90;;;;;;5074518;28;20570;-85
2023/03/14 10:37:58;;;;;;;3.03;1.10;;;9.50;99.90;;;;;;5089693;28;20189;-84
2023/03/14 10:40:52;;;;;;;1.43;1.10;;;9.40;99.90;;;;;;5074158;28;20196;-85
2023/03/14 10:43:24;;;;;;;1.43;1.00;;;9.50;99.90;;;;;;5066166;28;20650;-85
2023/03/14 10:45:57;;;;;;;1.70;1.03;;;9.60;99.90;;;;;;5072944;28;20733;-85
2023/03/14 10:48:40;;;;;;;1.50;1.10;;;9.60;99.90;;;;;;5072822;28;20200;-85
2023/03/14 10:51:10;;;;;;;2.40;1.20;;;9.90;99.90;;;;;;5074278;28;20263;-85
2023/03/14 10:53:42;;;;;;;1.97;1.20;;;10.00;99.90;;;;;;5072591;28;20202;-85
2023/03/14 10:56:15;;;;;;;1.97;1.30;;;10.00;99.90;;;;;;5072361;28;20179;-84
2023/03/14 10:58:56;;;;;;;1.80;1.10;;;9.90;99.90;;;;;;5072638;28;20216;-85
2023/03/14 11:01:47;;;;;;;2.33;1.00;;;9.80;99.90;;;;;;5073913;28;20211;-84
2023/03/14 11:04:50;;;;;;;1.40;1.00;;;9.80;99.90;;;;;;5072734;28;20180;-86
2023/03/14 11:07:43;;;;;;;1.70;0.97;;;9.80;99.90;;;;;;5072511;28;20195;-84
2023/03/14 11:10:15;;;;;;;1.67;1.10;;;9.80;99.90;;;;;;5072382;28;20242;-84
2023/03/14 11:13:06;;;;;;;2.37;1.00;;;9.90;99.90;;;;;;5072407;28;20172;-85
2023/03/14 11:15:53;;;;;;;0.90;0.90;;;10.00;99.90;;;;;;5072471;28;20572;-85
2023/03/14 11:18:41;;;;;;;2.83;1.30;;;10.00;99.90;;;;;;5133227;23;20288;-85
2023/03/14 11:21:44;;;;;;;1.00;0.80;;;10.20;99.90;;;;;;5094268;28;20186;-86
2023/03/14 11:24:25;;;;;;;2.03;1.27;;;10.20;99.90;;;;;;5076290;28;20184;-84
2023/03/14 11:27:20;;;;;;;1.17;0.83;;;10.10;99.90;;;;;;5076115;28;20194;-84
2023/03/14 11:30:13;;;;;;;1.23;1.10;;;10.10;99.90;;;;;;5085039;28;20577;-85
2023/03/14 11:32:45;;;;;;;1.03;0.97;;;10.00;99.90;;;;;;5094044;28;20184;-84
2023/03/14 11:35:25;;;;;;;1.93;0.90;;;10.20;99.90;;;;;;5075656;28;20207;-84
2023/03/14 11:38:12;;;;;;;1.10;1.00;;;10.20;99.90;;;;;;5075800;28;20196;-85
2023/03/14 11:40:39;;;;;;;1.00;0.90;;;10.30;99.90;;;;;;5093775;28;20172;-86
2023/03/14 11:43:23;;;;;;;1.27;1.00;;;10.50;99.90;;;;;;5093637;28;20176;-84
2023/03/14 11:45:51;;;;;;;1.43;1.10;;;10.60;99.90;;;;;;5075303;28;20179;-85
2023/03/14 11:48:25;;;;;;;1.10;1.00;;;10.60;99.90;;;;;;5093405;28;20286;-84
2023/03/14 11:50:54;;;;;;;0.90;0.90;;;10.50;99.90;;;;;;5074978;28;20176;-86
2023/03/14 11:53:43;;;;;;;1.33;1.20;;;10.50;99.90;;;;;;5075468;28;20646;-83
2023/03/14 11:56:22;;;;;;;1.00;1.00;;;10.50;99.90;;;;;;5074966;28;20169;-84
2023/03/14 11:58:59;;;;;;;0.90;0.90;;;10.40;99.90;;;;;;5093488;28;20187;-85
2023/03/14 12:01:35;;;;;;;1.40;1.00;;;10.40;99.90;;;;;;5075480;28;20202;-86
2023/03/14 12:04:11;;;;;;;1.40;1.10;;;10.40;99.90;;;;;;5075905;28;20172;-84
2023/03/14 12:06:49;;;;;;;1.67;1.07;;;10.30;99.90;;;;;;5074103;28;20225;-85
2023/03/14 12:09:18;;;;;;;2.00;1.40;;;10.30;99.90;;;;;;5076992;28;20190;-82
2023/03/14 12:12:00;;;;;;;1.63;1.43;;;10.30;99.90;;;;;;5093643;28;20215;-83
2023/03/14 12:14:35;;;;;;;1.10;1.00;;;10.30;99.90;;;;;;5075261;28;20195;-83
2023/03/14 12:17:19;;;;;;;1.70;1.13;;;10.30;99.90;;;;;;5093117;28;20171;-84
2023/03/14 12:19:46;;;;;;;0.80;0.80;;;10.30;99.90;;;;;;5075147;28;20261;-85
2023/03/14 12:22:23;;;;;;;1.20;0.90;;;10.30;99.90;;;;;;5092954;28;20176;-85
2023/03/14 12:24:55;;;;;;;0.90;0.80;;;10.20;99.90;;;;;;5093066;28;20229;-82
2023/03/14 12:27:42;;;;;;;0.80;0.80;;;10.20;99.90;;;;;;5093769;28;20145;-83
2023/03/14 12:30:16;;;;;;;0.77;0.77;;;10.10;99.90;;;;;;5093771;28;20168;-84
2023/03/14 12:32:42;;;;;;;1.07;0.83;;;10.10;99.90;;;;;;5075090;28;20178;-83
2023/03/14 12:35:39;;;;;;;1.43;1.33;;;10.10;99.90;;;;;;5093301;28;20206;-85
2023/03/14 12:38:22;;;;;;;1.13;0.90;;;10.00;99.90;;;;;;5093541;28;20194;-85
2023/03/14 12:41:12;;;;;;;0.90;0.90;;;9.90;99.90;;;;;;5093694;28;20156;-86
2023/03/14 12:43:38;;;;;;;2.10;1.30;;;9.90;99.90;;;;;;5096881;28;20506;-82
2023/03/14 12:46:04;;;;;;;0.83;0.80;;;9.80;99.90;;;;;;5075278;28;20179;-83
2023/03/14 12:48:29;;;;;;;1.37;1.27;;;9.80;99.90;;;;;;5075064;28;20184;-83
2023/03/14 12:51:01;;;;;;;1.70;1.40;;;9.80;99.90;;;;;;5092474;28;20262;-83
2023/03/14 12:53:30;;;;;;;1.90;1.53;;;9.80;99.90;;;;;;5074871;28;20297;-87
2023/03/14 12:56:05;;;;;;;2.43;1.67;;;9.80;99.90;;;;;;5074667;28;20208;-87
2023/03/14 12:59:03;;;;;;;2.33;1.10;;;9.80;99.90;;;;;;5074582;28;20187;-88
2023/03/14 13:01:29;;;;;;;1.37;1.27;;;9.70;99.90;;;;;;5087914;28;20180;-87
2023/03/14 13:03:57;;;;;;;2.57;1.50;;;9.60;99.90;;;;;;5092562;28;20530;-87
2023/03/14 13:06:53;;;;;;;1.67;0.90;;;9.60;99.90;;;;;;5073948;28;20171;-87